createdAt,value
2023-05-07T00:00:30.364Z,24.95
2023-05-07T00:03:03.494Z,24.88
2023-05-07T00:05:50.356Z,25.52
2023-05-07T00:08:23.500Z,25.50
2023-05-07T00:11:17.354Z,26.90
2023-05-07T00:14:11.359Z,25.15
2023-05-07T00:16:58.526Z,24.30
2023-05-07T00:19:32.853Z,23.55
2023-05-07T00:22:19.365Z,24.77
2023-05-07T00:24:52.483Z,26.20
2023-05-07T00:27:39.356Z,26.92
2023-05-07T00:30:13.622Z,26.70
2023-05-07T00:33:00.413Z,26.65
2023-05-07T00:35:33.502Z,24.05
2023-05-07T00:38:20.413Z,25.38
2023-05-07T00:40:53.778Z,25.27
2023-05-07T00:43:42.668Z,25.30
2023-05-07T00:46:17.012Z,26.23
2023-05-07T00:49:03.382Z,25.40
2023-05-07T00:51:37.477Z,25.85
2023-05-07T00:54:24.409Z,25.92
2023-05-07T00:56:57.463Z,25.20
2023-05-07T00:59:44.420Z,23.52
2023-05-07T01:02:17.536Z,25.05
2023-05-07T01:05:04.449Z,23.55
2023-05-07T01:07:45.398Z,25.65
2023-05-07T01:10:39.389Z,26.35
2023-05-07T01:13:34.415Z,24.77
2023-05-07T01:16:29.384Z,26.13
2023-05-07T01:19:20.415Z,25.83
2023-05-07T01:21:58.716Z,24.30
2023-05-07T01:24:45.400Z,25.88
2023-05-07T01:27:25.378Z,25.55
2023-05-07T01:30:19.383Z,26.67
2023-05-07T01:33:15.396Z,27.90
2023-05-07T01:35:52.533Z,28.40
2023-05-07T01:38:40.415Z,26.73
2023-05-07T01:41:14.518Z,27.88
2023-05-07T01:44:02.403Z,28.20
2023-05-07T01:46:36.607Z,28.73
2023-05-07T01:49:24.397Z,27.48
2023-05-07T01:51:57.525Z,27.48
2023-05-07T01:54:44.404Z,27.23
2023-05-07T01:57:24.402Z,27.60
2023-05-07T02:00:12.646Z,28.13
2023-05-07T02:02:53.441Z,26.73
2023-05-07T02:05:40.470Z,29.27
2023-05-07T02:08:13.532Z,28.55
2023-05-07T02:11:01.659Z,27.90
2023-05-07T02:13:37.523Z,27.83
2023-05-07T02:16:24.491Z,30.00
2023-05-07T02:18:57.658Z,28.13
2023-05-07T02:21:44.409Z,26.55
2023-05-07T02:24:17.574Z,27.60
2023-05-07T02:27:04.380Z,27.02
2023-05-07T02:29:44.408Z,29.58
2023-05-07T02:32:31.464Z,27.90
2023-05-07T02:35:04.503Z,27.33
2023-05-07T02:37:51.447Z,25.95
2023-05-07T02:40:31.421Z,28.88
2023-05-07T02:43:25.453Z,29.00
2023-05-07T02:46:14.458Z,26.60
2023-05-07T02:48:47.568Z,26.50
2023-05-07T02:51:34.439Z,25.33
2023-05-07T02:54:07.905Z,26.48
2023-05-07T02:56:54.460Z,26.65
2023-05-07T02:59:27.566Z,27.35
2023-05-07T03:02:14.425Z,26.48
2023-05-07T03:04:47.604Z,24.48
2023-05-07T03:07:34.437Z,26.95
2023-05-07T03:10:07.562Z,25.65
2023-05-07T03:13:01.508Z,26.25
2023-05-07T03:15:55.508Z,25.80
2023-05-07T03:18:42.468Z,24.73
2023-05-07T03:21:15.748Z,26.33
2023-05-07T03:24:02.466Z,25.00
2023-05-07T03:26:35.601Z,26.10
2023-05-07T03:29:22.469Z,26.48
2023-05-07T03:31:55.561Z,26.13
2023-05-07T03:34:42.446Z,25.65
2023-05-07T03:37:15.587Z,26.15
2023-05-07T03:40:02.445Z,25.67
2023-05-07T03:42:36.573Z,27.02
2023-05-07T03:45:23.464Z,26.52
2023-05-07T03:47:56.603Z,25.52
2023-05-07T03:50:43.477Z,25.60
2023-05-07T03:53:16.568Z,26.05
2023-05-07T03:55:57.469Z,25.52
2023-05-07T03:58:37.565Z,25.13
2023-05-07T04:01:17.448Z,24.05
2023-05-07T04:03:57.840Z,25.38
2023-05-07T04:06:38.471Z,23.77
2023-05-07T04:09:18.513Z,24.25
2023-05-07T04:11:58.471Z,23.52
2023-05-07T04:14:45.475Z,22.95
2023-05-07T04:17:25.507Z,23.55
2023-05-07T04:20:14.454Z,23.35
2023-05-07T04:22:47.571Z,23.42
2023-05-07T04:25:34.473Z,23.15
2023-05-07T04:28:14.536Z,21.50
2023-05-07T04:31:01.488Z,23.23
2023-05-07T04:33:41.463Z,22.38
2023-05-07T04:36:35.483Z,22.92
2023-05-07T04:39:29.490Z,22.63
2023-05-07T04:42:17.488Z,21.30
2023-05-07T04:44:52.583Z,21.55
2023-05-07T04:47:39.535Z,21.95
2023-05-07T04:50:14.588Z,22.95
2023-05-07T04:53:01.478Z,20.60
2023-05-07T04:55:34.705Z,22.17
2023-05-07T04:58:21.494Z,21.25
2023-05-07T05:00:54.596Z,21.27
2023-05-07T05:03:41.514Z,21.10
2023-05-07T05:06:14.596Z,21.00
2023-05-07T05:09:01.487Z,20.23
2023-05-07T05:11:41.510Z,19.73
2023-05-07T05:14:35.494Z,19.88
2023-05-07T05:17:22.558Z,19.48
2023-05-07T05:20:02.531Z,19.58
2023-05-07T05:22:50.490Z,19.23
2023-05-07T05:25:30.487Z,20.00
2023-05-07T05:28:17.537Z,19.42
2023-05-07T05:30:50.940Z,19.17
2023-05-07T05:33:37.516Z,20.13
2023-05-07T05:36:18.512Z,20.75
2023-05-07T05:39:12.521Z,19.35
2023-05-07T05:42:06.512Z,18.95
2023-05-07T05:44:53.514Z,21.38
2023-05-07T05:47:26.608Z,21.05
2023-05-07T05:50:14.521Z,21.45
2023-05-07T05:52:47.636Z,21.13
2023-05-07T05:55:34.527Z,21.63
2023-05-07T05:58:08.623Z,21.58
2023-05-07T06:00:55.523Z,22.38
2023-05-07T06:03:35.519Z,22.67
2023-05-07T06:06:29.521Z,21.30
2023-05-07T06:09:23.538Z,21.00
2023-05-07T06:12:17.564Z,21.20
2023-05-07T06:15:11.510Z,21.60
2023-05-07T06:18:05.564Z,23.48
2023-05-07T06:20:52.540Z,22.38
2023-05-07T06:23:25.755Z,21.58
2023-05-07T06:26:12.557Z,21.35
2023-05-07T06:28:45.640Z,21.85
2023-05-07T06:31:38.619Z,19.58
2023-05-07T06:34:15.131Z,22.38
2023-05-07T06:37:02.543Z,22.10
2023-05-07T06:39:35.924Z,21.45
2023-05-07T06:42:22.527Z,22.85
2023-05-07T06:44:56.082Z,21.77
2023-05-07T06:47:42.590Z,20.98
2023-05-07T06:50:24.566Z,20.95
2023-05-07T06:53:11.549Z,21.85
2023-05-07T06:55:44.640Z,20.77
2023-05-07T06:58:31.559Z,21.48
2023-05-07T07:01:04.686Z,20.08
2023-05-07T07:03:51.555Z,22.27
2023-05-07T07:06:31.557Z,26.65
2023-05-07T07:09:18.547Z,25.85
2023-05-07T07:11:51.689Z,24.17
2023-05-07T07:14:45.577Z,21.55
2023-05-07T07:17:39.664Z,20.88
2023-05-07T07:20:33.559Z,21.10
2023-05-07T07:23:13.566Z,19.38
2023-05-07T07:25:53.653Z,19.25
2023-05-07T07:28:33.539Z,20.17
2023-05-07T07:31:20.633Z,19.48
2023-05-07T07:34:14.546Z,20.25
2023-05-07T07:37:12.569Z,18.85
2023-05-07T07:39:59.684Z,19.15
2023-05-07T07:42:32.699Z,18.35
2023-05-07T07:45:19.581Z,18.83
2023-05-07T07:47:52.695Z,19.08
2023-05-07T07:50:44.988Z,19.10
2023-05-07T07:53:25.571Z,16.77
2023-05-07T07:56:19.573Z,19.02
2023-05-07T07:59:06.583Z,17.20
2023-05-07T08:01:46.664Z,19.42
2023-05-07T08:04:40.662Z,19.92
2023-05-07T08:07:30.573Z,18.58
2023-05-07T08:10:03.757Z,18.33
2023-05-07T08:12:57.605Z,16.45
2023-05-07T08:15:51.608Z,17.10
2023-05-07T08:18:45.584Z,17.30
2023-05-07T08:21:34.617Z,18.02
2023-05-07T08:24:07.690Z,18.20
2023-05-07T08:26:54.586Z,16.90
2023-05-07T08:29:27.695Z,18.08
2023-05-07T08:32:14.668Z,17.15
2023-05-07T08:34:47.713Z,16.90
2023-05-07T08:37:34.602Z,18.60
2023-05-07T08:40:10.738Z,16.70
2023-05-07T08:43:00.632Z,16.65
2023-05-07T08:45:35.762Z,16.15
2023-05-07T08:48:23.635Z,15.85
2023-05-07T08:50:57.709Z,16.40
2023-05-07T08:53:48.592Z,15.93
2023-05-07T08:56:29.643Z,16.55
2023-05-07T08:59:16.625Z,17.02
2023-05-07T09:01:49.830Z,17.17
2023-05-07T09:04:36.638Z,17.30
2023-05-07T09:07:16.616Z,16.40
2023-05-07T09:10:10.697Z,15.93
2023-05-07T09:13:05.752Z,16.08
2023-05-07T09:15:52.713Z,15.85
2023-05-07T09:18:26.475Z,15.55
2023-05-07T09:21:17.619Z,15.65
2023-05-07T09:23:57.853Z,15.43
2023-05-07T09:26:44.616Z,15.57
2023-05-07T09:29:25.617Z,14.98
2023-05-07T09:32:16.609Z,15.20
2023-05-07T09:34:56.634Z,13.40
2023-05-07T09:37:43.635Z,14.43
2023-05-07T09:40:34.652Z,13.57
2023-05-07T09:43:28.648Z,13.80
2023-05-07T09:46:31.669Z,13.48
2023-05-07T09:49:27.659Z,14.15
2023-05-07T09:52:00.735Z,12.73
2023-05-07T09:54:50.674Z,12.65
2023-05-07T09:57:33.627Z,12.60
2023-05-07T10:00:30.649Z,13.07
2023-05-07T10:03:19.726Z,13.55
2023-05-07T10:06:01.625Z,12.77
2023-05-07T10:08:57.648Z,12.82
2023-05-07T10:11:44.625Z,12.18
2023-05-07T10:14:25.654Z,12.95
2023-05-07T10:17:20.676Z,12.38
2023-05-07T10:20:08.569Z,13.75
2023-05-07T10:22:55.682Z,14.30
2023-05-07T10:25:42.671Z,13.35
2023-05-07T10:28:26.672Z,12.35
2023-05-07T10:32:04.661Z,13.18
2023-05-07T10:34:45.853Z,12.90
2023-05-07T10:37:32.685Z,13.85
2023-05-07T10:40:14.724Z,13.13
2023-05-07T10:43:14.691Z,13.05
2023-05-07T10:46:18.768Z,14.55
2023-05-07T10:49:12.549Z,14.02
2023-05-07T10:52:38.684Z,13.77
2023-05-07T10:55:44.709Z,13.45
2023-05-07T10:58:44.729Z,15.38
2023-05-07T11:02:05.769Z,14.57
2023-05-07T11:04:40.113Z,15.13
2023-05-07T11:07:35.685Z,15.57
2023-05-07T11:10:10.773Z,14.35
2023-05-07T11:13:05.734Z,15.35
2023-05-07T11:15:54.685Z,14.85
2023-05-07T11:18:27.895Z,14.98
2023-05-07T11:21:14.693Z,14.07
2023-05-07T11:23:55.685Z,12.50
2023-05-07T11:26:53.711Z,14.10
2023-05-07T11:29:30.070Z,14.90
2023-05-07T11:32:16.695Z,13.52
2023-05-07T11:34:57.668Z,14.43
2023-05-07T11:37:51.689Z,13.27
2023-05-07T11:40:38.685Z,14.07
2023-05-07T11:43:20.889Z,14.68
2023-05-07T11:46:16.700Z,13.68
2023-05-07T11:48:50.870Z,13.73
2023-05-07T11:51:38.739Z,15.50
2023-05-07T11:54:18.917Z,14.85
2023-05-07T11:57:06.732Z,15.57
2023-05-07T11:59:48.490Z,13.88
2023-05-07T12:02:35.793Z,15.20
2023-05-07T12:05:08.840Z,14.90
2023-05-07T12:07:55.676Z,14.07
2023-05-07T12:10:28.816Z,21.08
2023-05-07T12:13:38.687Z,13.68
2023-05-07T12:16:33.728Z,16.10
2023-05-07T12:19:27.728Z,15.10
2023-05-07T12:22:17.680Z,14.98
2023-05-07T12:24:55.923Z,13.13
2023-05-07T12:27:46.692Z,14.95
2023-05-07T12:30:27.768Z,15.82
2023-05-07T12:33:21.709Z,14.57
2023-05-07T12:36:12.710Z,13.82
2023-05-07T12:38:53.713Z,14.60
2023-05-07T12:42:06.703Z,15.05
2023-05-07T12:44:53.731Z,15.30
2023-05-07T12:47:34.792Z,14.43
2023-05-07T12:50:29.735Z,15.13
2023-05-07T12:53:19.732Z,15.85
2023-05-07T12:55:55.844Z,14.02
2023-05-07T12:58:43.712Z,14.20
2023-05-07T13:01:20.247Z,14.52
2023-05-07T13:04:11.793Z,14.68
2023-05-07T13:06:44.825Z,14.68
2023-05-07T13:09:31.728Z,15.90
2023-05-07T13:12:12.732Z,15.50
2023-05-07T13:15:06.726Z,13.90
2023-05-07T13:17:53.837Z,13.70
2023-05-07T13:20:26.808Z,14.02
2023-05-07T13:23:13.735Z,15.10
2023-05-07T13:25:46.865Z,15.52
2023-05-07T13:28:33.741Z,15.93
2023-05-07T13:31:13.778Z,15.98
2023-05-07T13:34:00.709Z,16.98
2023-05-07T13:36:38.058Z,16.85
2023-05-07T13:39:24.754Z,18.65
2023-05-07T13:41:57.953Z,17.25
2023-05-07T13:44:44.820Z,17.52
2023-05-07T13:47:18.854Z,18.80
2023-05-07T13:50:05.737Z,17.17
2023-05-07T13:52:47.140Z,18.48
2023-05-07T13:55:40.757Z,19.52
2023-05-07T13:58:36.522Z,19.27
2023-05-07T14:01:31.842Z,18.95
2023-05-07T14:04:18.760Z,18.45
2023-05-07T14:06:51.877Z,19.27
2023-05-07T14:09:38.739Z,19.50
2023-05-07T14:12:12.820Z,17.10
2023-05-07T14:15:06.758Z,18.30
2023-05-07T14:18:00.791Z,17.33
2023-05-07T14:20:47.772Z,17.83
2023-05-07T14:23:23.121Z,18.50
2023-05-07T14:26:09.742Z,20.77
2023-05-07T14:28:47.263Z,19.85
2023-05-07T14:31:33.857Z,20.92
2023-05-07T14:34:13.752Z,18.90
2023-05-07T14:37:07.769Z,19.90
2023-05-07T14:39:54.777Z,19.05
2023-05-07T14:42:27.852Z,19.27
2023-05-07T14:45:15.762Z,19.98
2023-05-07T14:47:48.963Z,19.95
2023-05-07T14:50:35.763Z,18.58
2023-05-07T14:53:18.765Z,18.13
2023-05-07T14:56:12.802Z,18.55
2023-05-07T14:58:59.752Z,18.25
2023-05-07T15:01:32.993Z,18.98
2023-05-07T15:04:19.796Z,21.77
2023-05-07T15:07:01.767Z,19.90
2023-05-07T15:09:52.940Z,20.70
2023-05-07T15:12:32.815Z,25.52
2023-05-07T15:15:26.900Z,20.02
2023-05-07T15:18:22.921Z,20.92
2023-05-07T15:21:09.789Z,19.75
2023-05-07T15:23:42.897Z,18.95
2023-05-07T15:26:30.790Z,18.02
2023-05-07T15:29:15.775Z,18.95
2023-05-07T15:32:09.885Z,19.83
2023-05-07T15:35:03.775Z,22.05
2023-05-07T15:37:57.781Z,21.10
2023-05-07T15:40:48.838Z,21.02
2023-05-07T15:43:22.635Z,20.38
2023-05-07T15:46:09.827Z,18.98
2023-05-07T15:48:43.009Z,17.38
2023-05-07T15:51:29.812Z,19.48
2023-05-07T15:54:09.866Z,19.50
2023-05-07T15:57:03.775Z,20.85
2023-05-07T15:59:57.811Z,20.80
2023-05-07T16:02:52.018Z,19.42
2023-05-07T16:05:45.819Z,18.50
2023-05-07T16:08:32.803Z,21.38
2023-05-07T16:11:13.796Z,19.30
2023-05-07T16:14:07.794Z,18.45
2023-05-07T16:17:01.919Z,18.15
2023-05-07T16:19:48.804Z,17.75
2023-05-07T16:22:28.805Z,17.15
2023-05-07T16:25:15.813Z,18.83
2023-05-07T16:27:55.802Z,18.58
2023-05-07T16:30:49.877Z,17.85
2023-05-07T16:33:36.799Z,17.30
2023-05-07T16:36:10.007Z,17.35
2023-05-07T16:38:56.828Z,19.25
2023-05-07T16:41:29.942Z,18.08
2023-05-07T16:44:16.838Z,18.55
2023-05-07T16:46:57.824Z,16.98
2023-05-07T16:49:53.033Z,15.27
2023-05-07T16:52:48.830Z,16.60
2023-05-07T16:55:41.802Z,16.95
2023-05-07T16:58:17.028Z,16.67
2023-05-07T17:01:03.827Z,17.33
2023-05-07T17:03:43.855Z,16.02
2023-05-07T17:06:37.817Z,16.90
2023-05-07T17:09:24.885Z,16.42
2023-05-07T17:11:58.038Z,16.13
2023-05-07T17:14:51.842Z,15.85
2023-05-07T17:17:38.868Z,16.08
2023-05-07T17:20:19.830Z,17.42
2023-05-07T17:23:14.843Z,17.60
2023-05-07T17:26:01.829Z,16.48
2023-05-07T17:28:36.952Z,16.75
2023-05-07T17:31:23.909Z,15.75
2023-05-07T17:34:05.882Z,15.65
2023-05-07T17:36:59.920Z,16.55
2023-05-07T17:39:48.821Z,15.65
2023-05-07T17:42:22.046Z,16.95
2023-05-07T17:45:08.841Z,16.60
2023-05-07T17:47:48.869Z,18.33
2023-05-07T17:50:43.918Z,17.80
2023-05-07T17:53:30.855Z,17.98
2023-05-07T17:56:10.839Z,17.55
2023-05-07T17:59:07.834Z,18.45
2023-05-07T18:01:54.981Z,17.33
2023-05-07T18:04:29.136Z,17.08
2023-05-07T18:07:15.813Z,16.33
2023-05-07T18:09:49.053Z,15.25
2023-05-07T18:12:36.844Z,14.48
2023-05-07T18:15:17.873Z,13.65
2023-05-07T18:18:11.895Z,12.98
2023-05-07T18:20:58.901Z,14.27
2023-05-07T18:23:35.640Z,15.68
2023-05-07T18:26:23.932Z,14.35
2023-05-07T18:28:56.988Z,14.10
2023-05-07T18:31:44.097Z,13.93
2023-05-07T18:34:18.004Z,14.75
2023-05-07T18:37:04.878Z,14.38
2023-05-07T18:39:39.020Z,14.68
2023-05-07T18:42:25.876Z,14.90
2023-05-07T18:44:59.029Z,14.55
2023-05-07T18:47:45.949Z,14.48
2023-05-07T18:50:19.747Z,18.20
2023-05-07T18:53:08.850Z,16.50
2023-05-07T18:55:53.887Z,15.48
2023-05-07T18:58:40.858Z,16.33
2023-05-07T19:01:20.934Z,16.58
2023-05-07T19:04:07.930Z,15.43
2023-05-07T19:06:48.877Z,16.50
2023-05-07T19:09:53.658Z,15.32
2023-05-07T19:12:54.923Z,15.07
2023-05-07T19:15:48.921Z,15.10
2023-05-07T19:18:42.882Z,16.15
2023-05-07T19:21:29.864Z,16.90
2023-05-07T19:24:03.003Z,16.63
2023-05-07T19:26:50.950Z,16.50
2023-05-07T19:29:24.116Z,16.55
2023-05-07T19:32:10.955Z,17.67
2023-05-07T19:34:46.028Z,16.40
2023-05-07T19:37:34.898Z,16.15
2023-05-07T19:40:11.796Z,16.88
2023-05-07T19:43:03.903Z,17.48
2023-05-07T19:45:43.932Z,17.55
2023-05-07T19:48:30.880Z,17.75
2023-05-07T19:51:05.068Z,17.88
2023-05-07T19:53:52.903Z,17.70
2023-05-07T19:56:26.273Z,16.80
2023-05-07T19:59:13.896Z,16.48
2023-05-07T20:01:49.060Z,17.58
2023-05-07T20:04:39.877Z,16.90
2023-05-07T20:07:15.082Z,17.75
2023-05-07T20:10:01.963Z,16.80
2023-05-07T20:12:45.978Z,17.50
2023-05-07T20:15:39.966Z,18.88
2023-05-07T20:18:33.916Z,19.05
2023-05-07T20:21:29.901Z,19.05
2023-05-07T20:24:25.885Z,19.13
2023-05-07T20:27:12.908Z,17.90
2023-05-07T20:29:46.661Z,18.95
2023-05-07T20:32:32.946Z,17.27
2023-05-07T20:35:12.884Z,17.52
2023-05-07T20:37:59.922Z,16.23
2023-05-07T20:40:36.992Z,18.23
2023-05-07T20:43:24.918Z,19.23
2023-05-07T20:46:15.013Z,18.30
2023-05-07T20:49:02.905Z,17.88
2023-05-07T20:51:43.912Z,17.67
2023-05-07T20:54:37.893Z,15.20
2023-05-07T20:57:25.929Z,16.20
2023-05-07T20:59:59.239Z,16.27
2023-05-07T21:02:46.940Z,16.95
2023-05-07T21:05:26.920Z,16.33
2023-05-07T21:08:20.924Z,15.60
2023-05-07T21:11:16.927Z,17.10
2023-05-07T21:14:10.938Z,18.33
2023-05-07T21:16:57.972Z,17.50
2023-05-07T21:19:37.913Z,17.20
2023-05-07T21:22:31.963Z,19.05
2023-05-07T21:25:25.920Z,18.75
2023-05-07T21:28:14.923Z,19.45
2023-05-07T21:30:54.921Z,18.85
2023-05-07T21:33:48.967Z,19.60
2023-05-07T21:36:35.950Z,17.15
2023-05-07T21:39:09.150Z,18.00
2023-05-07T21:41:55.909Z,17.90
2023-05-07T21:44:35.918Z,17.67
2023-05-07T21:47:22.951Z,16.98
2023-05-07T21:50:02.956Z,17.98
2023-05-07T21:52:56.931Z,18.42
2023-05-07T21:55:43.946Z,18.45
2023-05-07T21:58:17.009Z,16.77
2023-05-07T22:01:04.971Z,18.42
2023-05-07T22:03:38.102Z,17.83
2023-05-07T22:06:27.921Z,17.50
2023-05-07T22:09:07.951Z,19.25
2023-05-07T22:12:01.942Z,18.02
2023-05-07T22:14:48.908Z,17.75
2023-05-07T22:17:30.977Z,17.65
2023-05-07T22:20:24.929Z,17.35
2023-05-07T22:23:18.950Z,17.55
2023-05-07T22:26:05.965Z,16.88
2023-05-07T22:28:39.071Z,18.15
2023-05-07T22:31:25.995Z,18.77
2023-05-07T22:33:59.091Z,18.05
2023-05-07T22:36:45.955Z,18.02
2023-05-07T22:39:25.936Z,18.45
2023-05-07T22:42:19.953Z,19.17
2023-05-07T22:45:06.951Z,18.25
2023-05-07T22:47:46.987Z,18.67
2023-05-07T22:50:40.966Z,19.40
2023-05-07T22:53:27.949Z,19.50
2023-05-07T22:56:03.699Z,18.73
2023-05-07T22:58:49.946Z,18.50
2023-05-07T23:01:31.022Z,19.98
2023-05-07T23:04:24.944Z,18.73
2023-05-07T23:07:11.960Z,19.55
2023-05-07T23:09:45.199Z,19.10
2023-05-07T23:12:31.958Z,19.20
2023-05-07T23:15:11.975Z,18.05
2023-05-07T23:18:06.987Z,19.52
2023-05-07T23:21:00.973Z,19.77
2023-05-07T23:23:54.960Z,19.92
2023-05-07T23:26:48.956Z,19.38
2023-05-07T23:29:42.980Z,19.05
2023-05-07T23:32:29.984Z,20.27
2023-05-07T23:35:03.445Z,20.25
2023-05-07T23:37:49.958Z,19.27
2023-05-07T23:40:30.973Z,21.38
2023-05-07T23:43:17.991Z,20.25
2023-05-07T23:45:57.972Z,20.67
2023-05-07T23:48:51.982Z,19.30
2023-05-07T23:51:45.982Z,19.50
2023-05-07T23:54:34.247Z,19.75
2023-05-07T23:57:07.072Z,20.02
2023-05-07T23:59:53.993Z,19.92
